createdAt,value
2017-09-21T00:01:11.680Z,82.20
2017-09-21T00:03:39.277Z,82.10
2017-09-21T00:06:06.807Z,82.00
2017-09-21T00:08:34.344Z,81.90
2017-09-21T00:11:01.919Z,81.80
2017-09-21T00:13:30.241Z,82.20
2017-09-21T00:15:57.775Z,82.20
2017-09-21T00:18:25.335Z,82.10
2017-09-21T00:20:52.876Z,82.40
2017-09-21T00:23:20.416Z,82.30
2017-09-21T00:25:48.008Z,82.80
2017-09-21T00:28:16.472Z,81.90
2017-09-21T00:30:44.770Z,81.80
2017-09-21T00:33:12.330Z,81.80
2017-09-21T00:35:40.091Z,81.70
2017-09-21T00:38:07.631Z,81.90
2017-09-21T00:40:35.961Z,82.20
2017-09-21T00:43:03.496Z,82.10
2017-09-21T00:45:31.028Z,82.10
2017-09-21T00:47:58.615Z,82.20
2017-09-21T00:50:26.152Z,82.30
2017-09-21T00:52:54.460Z,82.50
2017-09-21T00:55:22.791Z,82.50
2017-09-21T00:57:50.326Z,82.50
2017-09-21T01:00:17.868Z,82.50
2017-09-21T01:02:45.479Z,82.70
2017-09-21T01:05:24.420Z,83.00
2017-09-21T01:11:38.480Z,83.50
2017-09-21T01:14:06.788Z,84.40
2017-09-21T01:16:34.316Z,84.40
2017-09-21T01:19:01.880Z,84.20
2017-09-21T01:21:30.178Z,84.30
2017-09-21T01:23:57.711Z,84.10
2017-09-21T01:26:26.050Z,84.40
2017-09-21T01:28:53.584Z,84.20
2017-09-21T01:31:21.115Z,84.20
2017-09-21T01:33:48.711Z,84.20
2017-09-21T01:36:16.750Z,84.30
2017-09-21T01:38:45.044Z,84.40
2017-09-21T01:41:12.603Z,84.30
2017-09-21T01:43:40.136Z,84.10
2017-09-21T01:46:07.674Z,84.20
2017-09-21T01:48:35.300Z,84.40
2017-09-21T01:51:02.834Z,83.20
2017-09-21T01:53:31.140Z,83.00
2017-09-21T01:55:58.719Z,83.00
2017-09-21T01:58:26.247Z,82.70
2017-09-21T02:00:53.784Z,82.60
2017-09-21T02:03:21.379Z,82.60
2017-09-21T02:05:48.921Z,82.80
2017-09-21T02:08:16.463Z,82.90
2017-09-21T02:10:44.791Z,82.90
2017-09-21T02:13:12.324Z,83.90
2017-09-21T02:15:39.854Z,83.80
2017-09-21T02:18:08.223Z,83.80
2017-09-21T02:20:35.785Z,83.70
2017-09-21T02:23:03.315Z,83.80
2017-09-21T02:25:30.883Z,82.70
2017-09-21T02:27:58.413Z,83.50
2017-09-21T02:30:25.938Z,83.90
2017-09-21T02:32:53.496Z,83.80
2017-09-21T02:35:21.027Z,83.70
2017-09-21T02:37:49.028Z,83.80
2017-09-21T02:40:16.610Z,83.80
2017-09-21T02:42:44.151Z,83.80
2017-09-21T02:45:11.682Z,83.90
2017-09-21T02:47:39.270Z,84.10
2017-09-21T02:50:07.567Z,84.20
2017-09-21T02:52:35.095Z,84.20
2017-09-21T02:55:03.422Z,84.70
2017-09-21T02:57:30.963Z,84.50
2017-09-21T02:59:58.496Z,84.20
2017-09-21T03:02:26.080Z,84.20
2017-09-21T03:04:53.658Z,84.10
2017-09-21T03:07:21.210Z,84.30
2017-09-21T03:09:48.788Z,84.20
2017-09-21T03:12:16.484Z,84.30
2017-09-21T03:14:44.019Z,84.70
2017-09-21T03:17:11.585Z,84.70
2017-09-21T03:19:39.119Z,84.50
2017-09-21T03:22:06.656Z,84.60
2017-09-21T03:24:34.268Z,84.90
2017-09-21T03:27:01.809Z,85.00
2017-09-21T03:29:29.338Z,85.10
2017-09-21T03:31:56.912Z,85.20
2017-09-21T03:34:24.447Z,85.40
2017-09-21T03:36:52.734Z,86.00
2017-09-21T03:39:20.714Z,86.00
2017-09-21T03:41:48.247Z,86.50
2017-09-21T03:44:16.689Z,86.70
2017-09-21T03:46:44.307Z,86.60
2017-09-21T03:49:26.227Z,86.50
2017-09-21T03:51:54.558Z,86.60
2017-09-21T03:54:22.099Z,86.60
2017-09-21T03:56:49.643Z,86.30
2017-09-21T03:59:17.259Z,86.40
2017-09-21T04:01:44.794Z,86.20
2017-09-21T04:04:12.328Z,86.20
2017-09-21T04:06:39.911Z,86.30
2017-09-21T04:09:07.441Z,86.20
2017-09-21T04:11:35.739Z,86.00
2017-09-21T04:14:03.327Z,85.90
2017-09-21T04:16:30.862Z,85.80
2017-09-21T04:18:58.391Z,85.70
2017-09-21T04:21:26.723Z,85.50
2017-09-21T04:23:54.258Z,86.10
2017-09-21T04:26:21.816Z,85.50
2017-09-21T04:28:49.408Z,85.60
2017-09-21T04:31:16.943Z,85.60
2017-09-21T04:33:44.568Z,85.80
2017-09-21T04:36:12.143Z,85.40
2017-09-21T04:38:39.684Z,85.30
2017-09-21T04:41:08.283Z,85.30
2017-09-21T04:43:36.467Z,85.30
2017-09-21T04:46:03.999Z,85.50
2017-09-21T04:48:32.299Z,85.70
2017-09-21T04:50:59.896Z,85.60
2017-09-21T04:53:27.461Z,85.80
2017-09-21T04:55:55.000Z,86.10
2017-09-21T04:58:22.619Z,86.30
2017-09-21T05:00:50.943Z,86.50
2017-09-21T05:03:18.479Z,86.40
2017-09-21T05:05:46.040Z,86.30
2017-09-21T05:08:19.357Z,86.90
2017-09-21T05:13:23.751Z,86.90
2017-09-21T05:15:52.051Z,87.20
2017-09-21T05:18:19.591Z,87.20
2017-09-21T05:20:47.167Z,87.00
2017-09-21T05:23:17.204Z,86.80
2017-09-21T05:25:45.511Z,86.50
2017-09-21T05:28:14.690Z,86.50
2017-09-21T05:30:42.223Z,86.70
2017-09-21T05:33:09.759Z,86.80
2017-09-21T05:35:37.339Z,86.70
2017-09-21T05:38:04.870Z,86.50
2017-09-21T05:40:32.406Z,86.30
2017-09-21T05:43:00.580Z,86.40
2017-09-21T05:45:28.115Z,86.20
2017-09-21T05:47:55.650Z,86.10
2017-09-21T05:50:23.967Z,86.30
2017-09-21T05:52:51.499Z,86.30
2017-09-21T05:55:19.035Z,86.10
2017-09-21T05:57:46.686Z,85.80
2017-09-21T06:00:16.426Z,85.50
2017-09-21T06:02:43.986Z,85.50
2017-09-21T06:05:11.543Z,85.50
2017-09-21T06:07:39.075Z,85.80
2017-09-21T06:10:06.603Z,85.40
2017-09-21T06:12:34.155Z,85.50
2017-09-21T06:15:01.688Z,85.60
2017-09-21T06:17:29.224Z,85.50
2017-09-21T06:19:56.804Z,85.30
2017-09-21T06:22:24.347Z,85.10
2017-09-21T06:24:52.672Z,84.70
2017-09-21T06:27:20.252Z,84.70
2017-09-21T06:29:47.778Z,84.50
2017-09-21T06:32:15.475Z,84.80
2017-09-21T06:34:43.031Z,84.90
2017-09-21T06:37:10.592Z,84.60
2017-09-21T06:39:38.116Z,84.30
2017-09-21T06:42:05.723Z,84.20
2017-09-21T06:44:33.715Z,84.40
2017-09-21T06:47:02.011Z,84.20
2017-09-21T06:49:29.563Z,84.20
2017-09-21T06:51:57.861Z,84.40
2017-09-21T06:54:25.394Z,84.40
2017-09-21T06:56:52.956Z,82.70
2017-09-21T06:59:21.266Z,81.20
2017-09-21T07:01:48.807Z,81.20
2017-09-21T07:04:16.480Z,79.30
2017-09-21T07:06:44.784Z,69.70
2017-09-21T07:09:12.316Z,69.50
2017-09-21T07:11:40.644Z,61.10
2017-09-21T07:14:08.178Z,61.00
2017-09-21T07:16:35.711Z,54.60
2017-09-21T07:19:03.271Z,52.70
2017-09-21T07:21:30.803Z,51.90
2017-09-21T07:23:58.338Z,50.60
2017-09-21T07:26:26.691Z,46.60
2017-09-21T07:28:54.231Z,46.60
2017-09-21T07:31:21.768Z,44.60
2017-09-21T07:33:49.360Z,45.50
2017-09-21T07:36:16.896Z,44.70
2017-09-21T07:38:44.431Z,40.90
2017-09-21T07:41:12.758Z,39.10
2017-09-21T07:43:40.283Z,39.10
2017-09-21T07:46:08.899Z,37.40
2017-09-21T07:48:36.992Z,37.40
2017-09-21T07:51:04.528Z,36.40
2017-09-21T07:53:32.059Z,35.10
2017-09-21T07:55:59.632Z,34.10
2017-09-21T07:58:27.167Z,33.10
2017-09-21T08:00:54.703Z,32.50
2017-09-21T08:03:22.263Z,31.90
2017-09-21T08:05:49.787Z,31.70
2017-09-21T08:08:17.325Z,31.20
2017-09-21T08:10:44.924Z,30.10
2017-09-21T08:13:12.527Z,31.20
2017-09-21T08:15:40.827Z,29.50
2017-09-21T08:18:08.397Z,29.50
2017-09-21T08:20:35.923Z,30.20
2017-09-21T08:23:03.466Z,30.40
2017-09-21T08:25:31.022Z,29.90
2017-09-21T08:27:58.575Z,28.90
2017-09-21T08:30:26.140Z,28.70
2017-09-21T08:32:53.731Z,28.60
2017-09-21T08:35:22.044Z,28.60
2017-09-21T08:37:49.587Z,28.60
2017-09-21T08:40:17.183Z,27.70
2017-09-21T08:42:44.739Z,26.80
2017-09-21T08:45:12.299Z,26.00
2017-09-21T08:47:40.048Z,26.10
2017-09-21T08:50:07.588Z,24.30
2017-09-21T08:52:35.135Z,26.20
2017-09-21T08:55:03.484Z,27.70
2017-09-21T08:57:31.025Z,27.60
2017-09-21T08:59:58.559Z,28.40
2017-09-21T09:02:26.148Z,29.60
2017-09-21T09:04:53.684Z,29.10
2017-09-21T09:07:21.215Z,27.00
2017-09-21T09:09:48.787Z,26.50
2017-09-21T09:12:16.527Z,26.00
2017-09-21T09:14:44.831Z,24.50
2017-09-21T09:17:12.424Z,24.40
2017-09-21T09:19:39.962Z,24.90
2017-09-21T09:22:07.495Z,25.60
2017-09-21T09:24:35.059Z,25.90
2017-09-21T09:27:02.599Z,27.80
2017-09-21T09:29:30.908Z,34.60
2017-09-21T09:31:58.470Z,33.90
2017-09-21T09:34:25.999Z,35.70
2017-09-21T09:36:53.692Z,38.80
2017-09-21T09:39:21.324Z,40.10
2017-09-21T09:41:48.872Z,39.30
2017-09-21T09:44:17.202Z,36.40
2017-09-21T09:46:44.792Z,36.30
2017-09-21T09:49:12.855Z,31.80
2017-09-21T09:51:40.393Z,30.50
2017-09-21T09:54:07.943Z,33.50
2017-09-21T09:56:35.480Z,34.10
2017-09-21T09:59:03.790Z,28.80
2017-09-21T10:01:31.374Z,28.70
2017-09-21T10:03:58.914Z,29.60
2017-09-21T10:06:26.448Z,29.30
2017-09-21T10:08:54.016Z,32.70
2017-09-21T10:11:21.552Z,35.30
2017-09-21T10:13:49.862Z,38.90
2017-09-21T10:16:17.418Z,38.90
2017-09-21T10:18:44.947Z,40.50
2017-09-21T10:21:12.595Z,42.90
2017-09-21T10:23:40.183Z,44.30
2017-09-21T10:26:07.726Z,41.20
2017-09-21T10:28:36.031Z,43.30
2017-09-21T10:31:03.595Z,43.10
2017-09-21T10:33:31.145Z,43.60
2017-09-21T10:35:58.688Z,45.60
2017-09-21T10:38:26.256Z,45.50
2017-09-21T10:40:53.798Z,45.20
2017-09-21T10:43:21.332Z,47.20
2017-09-21T10:45:48.922Z,46.30
2017-09-21T10:48:17.241Z,45.30
2017-09-21T10:50:45.097Z,45.30
2017-09-21T10:53:14.386Z,45.80
2017-09-21T10:55:42.693Z,43.80
2017-09-21T10:58:10.223Z,43.70
2017-09-21T11:00:38.562Z,46.10
2017-09-21T11:03:06.098Z,46.00
2017-09-21T11:05:33.648Z,45.40
2017-09-21T11:08:01.228Z,45.60
2017-09-21T11:10:28.779Z,46.60
2017-09-21T11:12:56.315Z,45.80
2017-09-21T11:15:23.871Z,46.20
2017-09-21T11:17:51.404Z,44.50
2017-09-21T11:20:19.712Z,46.80
2017-09-21T11:22:47.267Z,46.40
2017-09-21T11:25:16.083Z,43.40
2017-09-21T11:27:43.654Z,43.40
2017-09-21T11:30:11.248Z,44.20
2017-09-21T11:32:38.777Z,45.30
2017-09-21T11:35:06.314Z,47.70
2017-09-21T11:37:33.952Z,47.00
2017-09-21T11:40:01.511Z,47.00
2017-09-21T11:42:29.803Z,44.90
2017-09-21T11:44:57.407Z,44.80
2017-09-21T11:47:24.948Z,43.70
2017-09-21T11:49:52.480Z,42.30
2017-09-21T11:52:20.376Z,43.20
2017-09-21T11:54:48.103Z,43.50
2017-09-21T11:57:16.440Z,43.50
2017-09-21T11:59:44.035Z,42.50
2017-09-21T12:02:12.328Z,41.60
2017-09-21T12:04:39.915Z,41.60
2017-09-21T12:07:07.475Z,42.60
2017-09-21T12:09:35.004Z,39.90
2017-09-21T12:12:02.532Z,42.50
2017-09-21T12:14:30.883Z,38.70
2017-09-21T12:16:58.407Z,38.60
2017-09-21T12:19:25.939Z,40.00
2017-09-21T12:21:54.268Z,39.90
2017-09-21T12:24:21.800Z,39.90
2017-09-21T12:26:49.348Z,39.20
2017-09-21T12:29:16.912Z,38.70
2017-09-21T12:31:44.443Z,39.50
2017-09-21T12:34:11.967Z,35.60
2017-09-21T12:36:39.880Z,34.60
2017-09-21T12:39:08.188Z,37.60
2017-09-21T12:41:35.717Z,37.40
2017-09-21T12:44:04.039Z,37.00
2017-09-21T12:46:31.558Z,36.90
2017-09-21T12:48:59.855Z,40.50
2017-09-21T12:51:27.408Z,40.50
2017-09-21T12:53:55.276Z,38.00
2017-09-21T12:56:22.815Z,38.90
2017-09-21T12:58:51.168Z,39.70
2017-09-21T13:01:18.810Z,39.60
2017-09-21T13:03:46.355Z,41.40
2017-09-21T13:06:16.312Z,41.70
2017-09-21T13:08:43.848Z,41.70
2017-09-21T13:11:11.379Z,42.00
2017-09-21T13:13:39.203Z,42.80
2017-09-21T13:16:06.798Z,41.80
2017-09-21T13:18:34.364Z,43.10
2017-09-21T13:21:03.768Z,42.50
2017-09-21T13:23:31.321Z,43.30
2017-09-21T13:25:58.879Z,43.50
2017-09-21T13:28:27.846Z,44.70
2017-09-21T13:30:55.476Z,44.50
2017-09-21T13:33:23.061Z,43.90
2017-09-21T13:35:53.705Z,42.50
2017-09-21T13:38:25.048Z,45.10
2017-09-21T13:40:52.582Z,44.20
2017-09-21T13:43:20.177Z,44.90
2017-09-21T13:45:47.709Z,43.10
2017-09-21T13:48:17.171Z,42.80
2017-09-21T13:50:47.068Z,42.80
2017-09-21T13:53:16.427Z,41.90
2017-09-21T13:55:45.311Z,43.10
2017-09-21T13:58:13.808Z,44.30
2017-09-21T14:00:41.342Z,45.80
2017-09-21T14:03:08.874Z,47.80
2017-09-21T14:05:37.335Z,47.80
2017-09-21T14:08:05.640Z,48.80
2017-09-21T14:10:33.291Z,48.70
2017-09-21T14:13:01.542Z,49.70
2017-09-21T14:15:30.764Z,49.30
2017-09-21T14:17:58.445Z,50.80
2017-09-21T14:20:28.188Z,50.10
2017-09-21T14:22:56.011Z,50.10
2017-09-21T14:25:23.567Z,50.40
2017-09-21T14:27:51.147Z,50.70
2017-09-21T14:30:18.689Z,50.80
2017-09-21T14:32:46.230Z,50.20
2017-09-21T14:35:15.559Z,50.40
2017-09-21T14:37:43.101Z,51.00
2017-09-21T14:40:11.598Z,49.80
2017-09-21T14:42:39.248Z,49.80
2017-09-21T14:45:06.793Z,49.80
2017-09-21T14:47:35.099Z,50.10
2017-09-21T14:50:04.042Z,50.00
2017-09-21T14:52:32.467Z,49.60
2017-09-21T14:54:59.996Z,48.50
2017-09-21T14:57:27.839Z,48.40
2017-09-21T14:59:55.368Z,48.30
2017-09-21T15:02:29.821Z,48.80
2017-09-21T15:04:58.061Z,48.70
2017-09-21T15:07:25.623Z,49.30
2017-09-21T15:09:53.191Z,48.50
2017-09-21T15:12:20.809Z,48.70
2017-09-21T15:14:49.111Z,48.70
2017-09-21T15:17:16.652Z,48.70
2017-09-21T15:19:44.236Z,46.30
2017-09-21T15:22:13.464Z,48.10
2017-09-21T15:24:41.148Z,48.10
2017-09-21T15:27:08.736Z,47.80
2017-09-21T15:29:36.290Z,47.60
2017-09-21T15:32:04.603Z,47.90
2017-09-21T15:34:32.191Z,47.90
2017-09-21T15:36:59.751Z,48.30
2017-09-21T15:39:27.283Z,48.80
2017-09-21T15:41:54.844Z,47.90
2017-09-21T15:44:22.383Z,48.90
2017-09-21T15:46:49.915Z,49.70
2017-09-21T15:49:18.727Z,48.30
2017-09-21T15:51:46.333Z,48.40
2017-09-21T15:54:15.474Z,48.90
2017-09-21T15:56:43.824Z,49.60
2017-09-21T15:59:11.831Z,48.90
2017-09-21T16:01:39.375Z,49.30
2017-09-21T16:04:07.695Z,47.90
2017-09-21T16:06:36.031Z,47.90
2017-09-21T16:09:03.584Z,48.50
2017-09-21T16:11:31.151Z,50.00
2017-09-21T16:13:58.700Z,50.20
2017-09-21T16:16:26.231Z,50.80
2017-09-21T16:18:53.814Z,50.50
2017-09-21T16:21:21.352Z,51.80
2017-09-21T16:23:48.886Z,53.80
2017-09-21T16:26:17.317Z,55.80
2017-09-21T16:28:44.858Z,55.70
2017-09-21T16:31:12.411Z,56.00
2017-09-21T16:33:39.968Z,56.40
2017-09-21T16:36:07.570Z,56.40
2017-09-21T16:38:35.139Z,56.70
2017-09-21T16:41:02.762Z,56.60
2017-09-21T16:43:30.395Z,56.90
2017-09-21T16:45:58.766Z,57.60
2017-09-21T16:48:26.334Z,57.60
2017-09-21T16:50:53.867Z,57.90
2017-09-21T16:53:21.412Z,58.10
2017-09-21T16:55:49.787Z,59.10
2017-09-21T16:58:17.353Z,59.10
2017-09-21T17:00:45.941Z,59.50
2017-09-21T17:03:24.467Z,59.80
2017-09-21T17:09:05.867Z,60.10
2017-09-21T17:11:34.203Z,60.70
2017-09-21T17:14:01.760Z,60.70
2017-09-21T17:16:29.367Z,61.30
2017-09-21T17:18:57.676Z,61.50
2017-09-21T17:21:25.271Z,61.50
2017-09-21T17:23:52.894Z,61.40
2017-09-21T17:26:20.505Z,61.70
2017-09-21T17:28:48.824Z,63.20
2017-09-21T17:31:16.706Z,63.10
2017-09-21T17:33:44.240Z,63.30
2017-09-21T17:36:13.463Z,64.30
2017-09-21T17:38:41.106Z,64.20
2017-09-21T17:41:08.713Z,64.50
2017-09-21T17:43:36.305Z,64.50
2017-09-21T17:46:04.444Z,64.60
2017-09-21T17:48:32.068Z,64.80
2017-09-21T17:50:59.641Z,65.30
2017-09-21T17:53:27.999Z,65.80
2017-09-21T17:55:55.535Z,65.70
2017-09-21T17:58:23.846Z,67.40
2017-09-21T18:00:51.660Z,66.50
2017-09-21T18:03:19.200Z,66.50
2017-09-21T18:05:47.569Z,66.60
2017-09-21T18:08:17.407Z,67.60
2017-09-21T18:10:44.951Z,67.50
2017-09-21T18:13:12.539Z,67.80
2017-09-21T18:15:40.116Z,67.80
2017-09-21T18:18:08.422Z,68.00
2017-09-21T18:20:35.950Z,67.90
2017-09-21T18:23:04.275Z,68.00
2017-09-21T18:25:31.807Z,67.80
2017-09-21T18:28:00.107Z,68.30
2017-09-21T18:30:28.472Z,68.50
2017-09-21T18:32:56.007Z,68.40
2017-09-21T18:35:24.306Z,68.80
2017-09-21T18:37:51.919Z,68.70
2017-09-21T18:40:19.511Z,68.90
2017-09-21T18:42:47.839Z,69.20
2017-09-21T18:45:16.515Z,69.10
2017-09-21T18:47:44.088Z,69.50
2017-09-21T18:50:12.081Z,69.80
2017-09-21T18:52:39.675Z,70.60
2017-09-21T18:55:07.248Z,70.60
2017-09-21T18:57:34.847Z,70.80
2017-09-21T19:00:02.411Z,71.00
2017-09-21T19:02:30.207Z,70.60
2017-09-21T19:04:57.812Z,70.20
2017-09-21T19:07:25.399Z,70.20
2017-09-21T19:09:52.955Z,70.40
2017-09-21T19:12:20.530Z,70.70
2017-09-21T19:14:48.148Z,70.90
2017-09-21T19:17:16.435Z,71.30
2017-09-21T19:19:43.971Z,71.70
2017-09-21T19:22:11.556Z,71.30
2017-09-21T19:24:39.104Z,71.40
2017-09-21T19:27:06.698Z,71.50
2017-09-21T19:29:34.414Z,72.20
2017-09-21T19:32:02.015Z,72.30
2017-09-21T19:34:29.634Z,72.60
2017-09-21T19:36:57.287Z,72.90
2017-09-21T19:39:24.899Z,73.00
2017-09-21T19:41:52.459Z,72.80
2017-09-21T19:44:20.177Z,72.70
2017-09-21T19:46:47.767Z,72.50
2017-09-21T19:49:16.408Z,72.50
2017-09-21T19:51:44.765Z,72.00
2017-09-21T19:54:12.359Z,72.00
2017-09-21T19:56:39.956Z,72.20
2017-09-21T19:59:07.546Z,72.10
2017-09-21T20:01:35.143Z,72.10
2017-09-21T20:04:03.208Z,72.10
2017-09-21T20:06:30.780Z,72.20
2017-09-21T20:08:58.363Z,72.50
2017-09-21T20:11:25.927Z,72.20
2017-09-21T20:13:53.511Z,72.30
2017-09-21T20:16:21.104Z,72.60
2017-09-21T20:18:48.649Z,72.70
2017-09-21T20:21:16.874Z,72.90
2017-09-21T20:23:45.283Z,72.90
2017-09-21T20:26:14.556Z,73.00
2017-09-21T20:28:42.127Z,73.00
2017-09-21T20:31:09.668Z,72.70
2017-09-21T20:33:37.239Z,72.90
2017-09-21T20:36:04.801Z,72.80
2017-09-21T20:38:32.341Z,73.20
2017-09-21T20:40:59.878Z,73.40
2017-09-21T20:43:28.616Z,73.50
2017-09-21T20:45:56.155Z,73.40
2017-09-21T20:48:23.728Z,73.70
2017-09-21T20:50:51.352Z,73.60
2017-09-21T20:53:18.924Z,73.80
2017-09-21T20:55:46.459Z,74.10
2017-09-21T20:58:16.460Z,74.20
2017-09-21T21:00:44.023Z,74.10
2017-09-21T21:03:11.554Z,74.20
2017-09-21T21:05:39.832Z,74.30
2017-09-21T21:08:07.387Z,74.70
2017-09-21T21:10:35.253Z,75.10
2017-09-21T21:13:02.854Z,75.10
2017-09-21T21:15:30.414Z,75.30
2017-09-21T21:18:02.157Z,75.50
2017-09-21T21:20:29.792Z,75.50
2017-09-21T21:22:58.102Z,75.20
2017-09-21T21:25:25.694Z,75.20
2017-09-21T21:27:53.300Z,75.20
2017-09-21T21:30:20.853Z,75.50
2017-09-21T21:32:48.386Z,75.40
2017-09-21T21:35:17.324Z,75.10
2017-09-21T21:37:44.863Z,75.10
2017-09-21T21:40:12.403Z,75.40
2017-09-21T21:42:39.968Z,75.20
2017-09-21T21:45:07.507Z,75.20
2017-09-21T21:47:35.803Z,76.80
2017-09-21T21:50:03.384Z,76.80
2017-09-21T21:52:30.910Z,76.80
2017-09-21T21:54:58.477Z,76.90
2017-09-21T21:57:26.064Z,76.70
2017-09-21T21:59:53.595Z,76.80
2017-09-21T22:02:21.124Z,76.90
2017-09-21T22:04:48.684Z,76.80
2017-09-21T22:07:16.843Z,76.90
2017-09-21T22:09:44.383Z,77.10
2017-09-21T22:12:11.977Z,77.20
2017-09-21T22:14:40.279Z,77.60
2017-09-21T22:17:07.807Z,77.30
2017-09-21T22:19:35.372Z,77.40
2017-09-21T22:22:02.908Z,77.50
2017-09-21T22:24:30.443Z,77.70
2017-09-21T22:26:58.006Z,76.90
2017-09-21T22:29:25.535Z,76.90
2017-09-21T22:31:53.063Z,77.10
2017-09-21T22:34:20.730Z,77.50
2017-09-21T22:36:48.258Z,77.40
2017-09-21T22:39:16.439Z,77.70
2017-09-21T22:41:43.996Z,78.30
2017-09-21T22:44:11.536Z,78.70
2017-09-21T22:46:39.067Z,79.00
2017-09-21T22:49:06.623Z,78.80
2017-09-21T22:51:34.924Z,78.70
2017-09-21T22:54:02.473Z,78.50
2017-09-21T22:56:30.068Z,78.80
2017-09-21T22:58:57.632Z,79.30
2017-09-21T23:01:25.172Z,79.80
2017-09-21T23:03:52.766Z,79.50
2017-09-21T23:06:20.290Z,79.60
2017-09-21T23:08:48.019Z,79.30
2017-09-21T23:11:16.503Z,79.70
2017-09-21T23:13:44.799Z,79.80
2017-09-21T23:16:12.331Z,79.80
2017-09-21T23:18:40.707Z,79.90
2017-09-21T23:21:09.056Z,79.80
2017-09-21T23:23:36.613Z,79.70
2017-09-21T23:26:04.170Z,79.80
2017-09-21T23:28:31.694Z,79.50
2017-09-21T23:30:59.223Z,79.30
2017-09-21T23:33:27.555Z,79.30
2017-09-21T23:35:55.095Z,79.10
2017-09-21T23:38:22.627Z,79.00
2017-09-21T23:40:50.202Z,79.40
2017-09-21T23:43:17.736Z,79.40
2017-09-21T23:45:45.275Z,79.50
2017-09-21T23:48:24.811Z,79.50
2017-09-21T23:53:50.847Z,80.20
2017-09-21T23:56:18.379Z,80.20
2017-09-21T23:58:45.911Z,80.20
